Time;durP1;ratioP1;P1;durP2;ratioP2;P2;SDS_P1;SDS_P2;PMS_P1;PMS_P2;Temp;Humidity;BMP_temperature;BMP_pressure;BME280_temperature;BME280_humidity;BME280_pressure;Samples;Min_cycle;Max_cycle;Signal;HPM_P1;HPM_P2
2021/12/18 00:00:02;;;;;;;17.12;13.48;;;4.10;99.90;;;;;;1864967;75;21078;-73
2021/12/18 00:02:28;;;;;;;16.50;13.38;;;4.10;99.90;;;;;;1859435;76;21152;-72
2021/12/18 00:04:54;;;;;;;17.10;12.98;;;4.10;99.90;;;;;;1875486;75;21504;-72
2021/12/18 00:07:22;;;;;;;19.75;14.20;;;4.10;99.90;;;;;;1880497;76;21604;-72
2021/12/18 00:09:51;;;;;;;22.15;13.78;;;3.90;99.90;;;;;;1871819;76;21086;-70
2021/12/18 00:12:16;;;;;;;19.32;14.25;;;3.90;99.90;;;;;;1883323;75;21255;-72
2021/12/18 00:14:42;;;;;;;20.32;14.18;;;3.80;99.90;;;;;;1878050;75;21094;-72
2021/12/18 00:17:08;;;;;;;18.07;14.55;;;4.00;99.90;;;;;;1863750;76;21078;-72
2021/12/18 00:19:35;;;;;;;18.20;14.30;;;3.90;99.90;;;;;;1855670;76;21082;-71
2021/12/18 00:22:01;;;;;;;16.50;13.55;;;4.00;99.90;;;;;;1864727;75;21093;-72
2021/12/18 00:24:27;;;;;;;18.85;14.73;;;4.00;99.90;;;;;;1858196;75;21157;-72
2021/12/18 00:26:55;;;;;;;20.20;15.08;;;4.10;99.90;;;;;;1871689;75;21093;-72
2021/12/18 00:29:23;;;;;;;23.30;15.75;;;4.10;99.90;;;;;;1880067;76;21491;-72
2021/12/18 00:31:49;;;;;;;21.95;14.70;;;4.00;99.90;;;;;;1865911;76;21055;-71
2021/12/18 00:34:16;;;;;;;20.32;14.85;;;4.00;99.90;;;;;;1884369;76;21160;-72
2021/12/18 00:36:43;;;;;;;21.55;15.93;;;4.10;99.90;;;;;;1885316;75;21090;-72
2021/12/18 00:39:09;;;;;;;22.05;15.83;;;4.00;99.90;;;;;;1883166;75;21218;-73
2021/12/18 00:42:22;;;;;;;18.90;15.38;;;3.90;99.90;;;;;;1886246;75;21086;-71
2021/12/18 00:44:05;;;;;;;20.92;16.10;;;3.90;99.90;;;;;;1853360;76;21166;-73
2021/12/18 00:46:31;;;;;;;19.52;15.03;;;3.90;99.90;;;;;;1871170;75;21183;-70
2021/12/18 00:48:58;;;;;;;28.67;16.42;;;3.90;99.90;;;;;;1874456;75;21664;-72
2021/12/18 00:51:25;;;;;;;17.90;14.87;;;4.00;99.90;;;;;;1877677;75;21091;-74
2021/12/18 00:53:51;;;;;;;20.68;15.60;;;3.80;99.90;;;;;;1866292;76;21070;-73
2021/12/18 00:56:17;;;;;;;19.55;15.08;;;3.90;99.90;;;;;;1849298;76;21537;-74
2021/12/18 00:58:44;;;;;;;19.52;15.00;;;3.90;99.90;;;;;;1877325;75;21052;-75
2021/12/18 01:01:11;;;;;;;21.95;15.13;;;4.00;99.90;;;;;;1859120;75;21141;-75
2021/12/18 01:03:37;;;;;;;17.07;13.22;;;4.00;99.90;;;;;;1864055;74;21096;-75
2021/12/18 01:06:04;;;;;;;19.50;13.88;;;4.00;99.90;;;;;;1868182;75;21082;-74
2021/12/18 01:08:30;;;;;;;22.93;13.78;;;3.90;99.90;;;;;;1882232;75;21171;-75
2021/12/18 01:11:19;;;;;;;15.75;13.00;;;3.90;99.90;;;;;;1858818;75;21149;-75
2021/12/18 01:13:29;;;;;;;19.35;13.95;;;4.00;99.90;;;;;;1879166;76;21094;-75
2021/12/18 01:15:55;;;;;;;16.90;14.53;;;3.90;99.90;;;;;;1871217;75;21230;-75
2021/12/18 01:23:48;;;;;;;16.62;13.83;;;3.90;99.90;;;;;;1872481;76;21136;-74
2021/12/18 01:26:14;;;;;;;21.25;15.50;;;3.80;99.90;;;;;;1875723;76;21502;-75
2021/12/18 01:28:40;;;;;;;19.57;14.75;;;3.90;99.90;;;;;;1868560;75;21078;-74
2021/12/18 01:31:06;;;;;;;17.98;14.28;;;3.90;99.90;;;;;;1860449;75;21073;-75
2021/12/18 01:33:32;;;;;;;16.50;14.23;;;3.80;99.90;;;;;;1879551;76;21159;-74
2021/12/18 01:36:00;;;;;;;19.00;15.18;;;3.90;99.90;;;;;;1873566;76;21090;-73
2021/12/18 01:38:28;;;;;;;20.35;14.68;;;3.90;99.90;;;;;;1881566;76;21119;-75
2021/12/18 01:40:54;;;;;;;21.75;15.08;;;3.80;99.90;;;;;;1880261;76;21206;-75
2021/12/18 01:51:18;;;;;;;19.48;14.90;;;3.70;99.90;;;;;;1864129;75;21054;-74
2021/12/18 01:53:38;;;;;;;20.60;15.08;;;3.80;99.90;;;;;;1858447;76;21147;-75
2021/12/18 01:56:04;;;;;;;19.20;15.18;;;3.90;99.90;;;;;;1861797;75;21755;-74
2021/12/18 01:58:30;;;;;;;20.80;15.43;;;3.90;99.90;;;;;;1875333;75;21090;-75
2021/12/18 02:00:56;;;;;;;18.40;15.60;;;3.80;99.90;;;;;;1872450;75;21203;-74
2021/12/18 02:03:23;;;;;;;17.32;14.33;;;3.80;99.90;;;;;;1878618;76;21094;-75
2021/12/18 02:05:49;;;;;;;21.90;14.87;;;3.80;99.90;;;;;;1885650;75;21213;-74
2021/12/18 02:08:15;;;;;;;21.12;16.00;;;3.70;99.90;;;;;;1876637;76;21267;-74
2021/12/18 02:10:48;;;;;;;20.60;16.10;;;3.70;99.90;;;;;;1886937;76;21171;-74
2021/12/18 02:21:19;;;;;;;23.40;16.57;;;3.70;99.90;;;;;;1886946;74;21266;-75
2021/12/18 02:23:45;;;;;;;23.18;16.75;;;3.70;99.90;;;;;;1880064;75;21094;-74
2021/12/18 02:26:12;;;;;;;19.55;15.48;;;3.70;99.90;;;;;;1860070;75;21516;-74
2021/12/18 02:28:39;;;;;;;23.35;14.85;;;3.80;99.90;;;;;;1884374;76;21206;-74
2021/12/18 02:31:05;;;;;;;18.60;14.20;;;3.90;99.90;;;;;;1878746;76;21494;-74
2021/12/18 02:33:31;;;;;;;23.00;16.17;;;3.80;99.90;;;;;;1876787;75;21096;-75
2021/12/18 02:35:59;;;;;;;21.50;15.40;;;3.80;99.90;;;;;;1880378;76;21105;-75
2021/12/18 02:38:31;;;;;;;20.37;14.65;;;3.70;99.90;;;;;;1877330;76;21596;-74
2021/12/18 02:43:27;;;;;;;19.23;14.80;;;3.70;99.90;;;;;;1859368;75;21085;-74
2021/12/18 02:45:55;;;;;;;33.10;15.58;;;3.60;99.90;;;;;;1883733;75;21160;-73
2021/12/18 02:48:21;;;;;;;23.52;14.83;;;3.60;99.90;;;;;;1869352;76;21241;-74
2021/12/18 02:50:47;;;;;;;22.82;15.63;;;3.50;99.90;;;;;;1873288;76;21172;-76
2021/12/18 02:53:13;;;;;;;18.15;14.45;;;3.60;99.90;;;;;;1875020;76;21147;-76
2021/12/18 02:55:39;;;;;;;18.77;14.53;;;3.50;99.90;;;;;;1884790;76;21067;-74
2021/12/18 02:58:05;;;;;;;20.43;14.58;;;3.50;99.90;;;;;;1866431;76;21081;-75
2021/12/18 03:00:31;;;;;;;21.95;14.73;;;3.50;99.90;;;;;;1871672;76;21163;-76
2021/12/18 03:03:04;;;;;;;24.10;16.70;;;3.50;99.90;;;;;;1876472;76;21090;-75
2021/12/18 03:05:33;;;;;;;23.77;15.48;;;3.40;99.90;;;;;;1872343;75;21114;-73
2021/12/18 03:08:00;;;;;;;20.17;15.48;;;3.40;99.90;;;;;;1869090;75;21528;-73
2021/12/18 03:24:23;;;;;;;20.68;14.95;;;3.20;99.90;;;;;;1888069;76;21144;-74
2021/12/18 03:26:36;;;;;;;23.07;15.95;;;3.20;99.90;;;;;;1871286;76;21557;-74
2021/12/18 03:29:02;;;;;;;22.48;15.43;;;3.10;99.90;;;;;;1880603;75;21514;-75
2021/12/18 03:31:29;;;;;;;19.35;15.30;;;3.20;99.90;;;;;;1882414;74;21498;-74
2021/12/18 03:33:55;;;;;;;21.90;15.38;;;3.30;99.90;;;;;;1872789;76;21217;-74
2021/12/18 03:36:22;;;;;;;19.30;14.55;;;3.20;99.90;;;;;;1869022;76;21139;-71
2021/12/18 03:38:48;;;;;;;22.60;15.10;;;3.20;99.90;;;;;;1879324;76;21568;-74
2021/12/18 03:41:14;;;;;;;22.35;15.20;;;3.20;99.90;;;;;;1888817;76;21761;-73
2021/12/18 03:43:40;;;;;;;24.00;16.55;;;3.20;99.90;;;;;;1876573;76;21575;-74
2021/12/18 03:46:06;;;;;;;22.93;15.65;;;3.20;99.90;;;;;;1876473;74;21217;-74
2021/12/18 03:48:32;;;;;;;18.42;14.25;;;3.10;99.90;;;;;;1867164;75;21246;-74
2021/12/18 03:50:59;;;;;;;21.37;15.63;;;3.20;99.90;;;;;;1868789;76;21055;-75
2021/12/18 03:53:25;;;;;;;24.60;16.60;;;3.20;99.90;;;;;;1871747;74;21105;-74
2021/12/18 03:55:51;;;;;;;18.62;14.87;;;3.10;99.90;;;;;;1869915;75;21094;-74
2021/12/18 03:58:17;;;;;;;28.23;15.35;;;3.00;99.90;;;;;;1862642;75;21094;-73
2021/12/18 04:00:43;;;;;;;21.65;14.68;;;3.10;99.90;;;;;;1874178;75;21062;-75
2021/12/18 04:03:09;;;;;;;23.95;14.93;;;3.00;99.90;;;;;;1874251;75;21046;-75
2021/12/18 04:05:35;;;;;;;22.10;14.40;;;3.10;99.90;;;;;;1874603;76;21069;-74
2021/12/18 04:08:08;;;;;;;18.00;14.43;;;3.10;99.90;;;;;;1879116;76;21090;-74
2021/12/18 04:10:29;;;;;;;19.00;13.95;;;3.00;99.90;;;;;;1877592;75;21098;-72
2021/12/18 04:12:59;;;;;;;24.35;14.63;;;2.90;99.90;;;;;;1865109;76;21054;-74
2021/12/18 04:15:23;;;;;;;17.25;14.10;;;2.80;99.90;;;;;;1869602;76;21477;-73
2021/12/18 04:17:49;;;;;;;22.77;14.40;;;2.80;99.90;;;;;;1874956;75;21171;-75
2021/12/18 04:20:16;;;;;;;17.35;13.58;;;2.80;99.90;;;;;;1880297;75;21128;-75
2021/12/18 04:22:42;;;;;;;23.65;13.48;;;2.90;99.90;;;;;;1868402;76;21386;-73
2021/12/18 04:25:08;;;;;;;19.55;13.93;;;3.00;99.90;;;;;;1874606;74;21447;-75
2021/12/18 04:27:34;;;;;;;17.45;13.62;;;3.00;99.90;;;;;;1878027;75;21502;-74
2021/12/18 04:30:00;;;;;;;20.75;14.33;;;3.00;99.90;;;;;;1872905;75;21494;-74
2021/12/18 04:32:26;;;;;;;19.65;12.70;;;3.00;99.90;;;;;;1874584;75;21603;-74
2021/12/18 04:34:52;;;;;;;20.95;13.68;;;2.90;99.90;;;;;;1872803;75;21593;-72
2021/12/18 04:37:20;;;;;;;18.67;13.05;;;2.80;99.90;;;;;;1870508;76;21086;-75
2021/12/18 04:39:46;;;;;;;17.07;12.13;;;2.80;99.90;;;;;;1863477;76;21151;-74
2021/12/18 04:42:12;;;;;;;15.95;12.05;;;2.80;99.90;;;;;;1884663;75;21086;-75
2021/12/18 04:44:38;;;;;;;15.23;11.95;;;2.80;99.90;;;;;;1882374;75;21258;-74
2021/12/18 04:47:04;;;;;;;21.65;13.35;;;2.90;99.90;;;;;;1881545;75;21093;-74
2021/12/18 04:49:30;;;;;;;15.93;12.23;;;2.80;99.90;;;;;;1882370;75;21624;-74
2021/12/18 04:51:56;;;;;;;18.40;13.13;;;2.80;99.90;;;;;;1884230;75;21584;-73
2021/12/18 04:54:22;;;;;;;17.32;12.20;;;2.70;99.90;;;;;;1867507;76;21568;-74
2021/12/18 04:56:49;;;;;;;19.02;13.05;;;2.70;99.90;;;;;;1880768;76;21499;-73
2021/12/18 04:59:15;;;;;;;18.67;13.30;;;2.70;99.90;;;;;;1878189;74;21164;-73
2021/12/18 05:01:42;;;;;;;17.45;12.78;;;2.70;99.90;;;;;;1868180;75;21047;-75
2021/12/18 05:04:11;;;;;;;18.57;13.28;;;2.70;99.90;;;;;;1874437;75;21077;-73
2021/12/18 05:06:38;;;;;;;16.15;12.37;;;2.70;99.90;;;;;;1884751;75;21160;-75
2021/12/18 05:09:04;;;;;;;19.25;12.28;;;2.60;99.90;;;;;;1864969;74;21117;-74
2021/12/18 05:11:30;;;;;;;13.55;11.78;;;2.60;99.90;;;;;;1877697;75;21156;-73
2021/12/18 05:13:57;;;;;;;16.62;11.85;;;2.70;99.90;;;;;;1860250;76;21056;-73
2021/12/18 05:16:23;;;;;;;16.40;12.35;;;2.50;99.90;;;;;;1880499;76;21168;-74
2021/12/18 05:18:49;;;;;;;15.05;11.25;;;2.60;99.90;;;;;;1872788;76;21077;-74
2021/12/18 05:21:15;;;;;;;15.40;12.23;;;2.70;99.90;;;;;;1875537;75;21098;-73
2021/12/18 05:23:41;;;;;;;14.73;11.20;;;2.70;99.90;;;;;;1877531;75;21181;-73
2021/12/18 05:26:07;;;;;;;15.55;11.75;;;2.70;99.90;;;;;;1872384;76;21134;-73
2021/12/18 05:28:33;;;;;;;14.28;11.35;;;2.80;99.90;;;;;;1880475;76;21148;-75
2021/12/18 05:30:59;;;;;;;17.90;12.50;;;2.70;99.90;;;;;;1870610;76;21155;-74
2021/12/18 05:33:26;;;;;;;15.20;11.70;;;2.70;99.90;;;;;;1871198;75;21082;-75
2021/12/18 05:35:52;;;;;;;14.83;10.82;;;2.60;99.90;;;;;;1883656;76;21055;-73
2021/12/18 05:38:18;;;;;;;16.55;11.35;;;2.70;99.90;;;;;;1862537;75;21117;-75
2021/12/18 05:40:44;;;;;;;19.07;12.05;;;2.70;99.90;;;;;;1874498;76;21090;-75
2021/12/18 05:43:11;;;;;;;16.27;11.80;;;2.70;99.90;;;;;;1870073;76;21142;-74
2021/12/18 05:45:37;;;;;;;14.85;11.10;;;2.80;99.90;;;;;;1883831;76;21153;-74
2021/12/18 05:48:04;;;;;;;16.75;12.13;;;2.80;99.90;;;;;;1879318;75;21081;-75
2021/12/18 05:50:30;;;;;;;15.93;11.97;;;2.80;99.90;;;;;;1864028;76;21169;-75
2021/12/18 05:52:58;;;;;;;14.07;10.75;;;2.80;99.90;;;;;;1868323;76;21098;-74
2021/12/18 05:55:25;;;;;;;18.52;11.70;;;2.80;99.90;;;;;;1851025;76;21106;-75
2021/12/18 05:57:51;;;;;;;18.48;11.57;;;2.90;99.90;;;;;;1873213;76;21467;-75
2021/12/18 06:00:17;;;;;;;16.35;12.35;;;2.80;99.90;;;;;;1873682;75;21501;-74
2021/12/18 06:02:44;;;;;;;20.95;11.75;;;2.90;99.90;;;;;;1876672;75;21518;-75
2021/12/18 06:05:10;;;;;;;15.98;11.88;;;2.90;99.90;;;;;;1880006;74;21494;-75
2021/12/18 06:10:13;;;;;;;14.75;11.43;;;2.90;99.90;;;;;;1870012;75;21082;-75
2021/12/18 06:12:39;;;;;;;17.30;11.68;;;2.80;99.90;;;;;;1880593;74;21077;-74
2021/12/18 06:15:06;;;;;;;14.03;10.53;;;2.80;99.90;;;;;;1878722;75;21157;-74
2021/12/18 06:17:32;;;;;;;13.53;10.10;;;2.80;99.90;;;;;;1891530;75;21169;-72
2021/12/18 06:19:58;;;;;;;14.38;10.32;;;3.00;99.90;;;;;;1880395;75;21089;-74
2021/12/18 06:22:24;;;;;;;20.17;11.78;;;3.00;99.90;;;;;;1870026;76;21148;-73
2021/12/18 06:24:50;;;;;;;22.30;10.98;;;3.00;99.90;;;;;;1857557;75;21089;-74
2021/12/18 06:27:16;;;;;;;16.90;9.88;;;2.90;99.90;;;;;;1854383;76;21091;-73
2021/12/18 06:29:43;;;;;;;12.13;9.93;;;2.90;99.90;;;;;;1876209;75;21106;-73
2021/12/18 06:32:09;;;;;;;15.58;11.12;;;3.00;99.90;;;;;;1879989;75;21145;-74
2021/12/18 06:34:36;;;;;;;14.33;9.65;;;3.00;99.90;;;;;;1879999;75;21136;-74
2021/12/18 06:37:02;;;;;;;13.93;10.15;;;3.10;99.90;;;;;;1879098;75;21152;-74
2021/12/18 06:39:28;;;;;;;14.05;9.48;;;3.20;99.90;;;;;;1865734;75;21094;-73
2021/12/18 06:41:54;;;;;;;12.47;9.70;;;3.30;99.90;;;;;;1862564;75;21156;-72
2021/12/18 06:44:20;;;;;;;16.82;10.85;;;3.10;99.90;;;;;;1882713;75;21059;-72
2021/12/18 06:46:46;;;;;;;15.55;9.95;;;3.20;99.90;;;;;;1877551;75;21152;-73
2021/12/18 06:49:12;;;;;;;20.97;11.63;;;3.10;99.90;;;;;;1869665;75;21215;-73
2021/12/18 06:51:38;;;;;;;16.65;11.90;;;3.10;99.90;;;;;;1873159;76;21212;-73
2021/12/18 06:54:04;;;;;;;17.20;11.08;;;3.00;99.90;;;;;;1881787;75;21245;-74
2021/12/18 06:56:31;;;;;;;16.67;11.15;;;3.10;99.90;;;;;;1880336;76;21437;-74
2021/12/18 06:58:57;;;;;;;15.95;11.88;;;3.00;99.90;;;;;;1861884;75;21485;-73
2021/12/18 07:01:23;;;;;;;14.15;11.20;;;3.00;99.90;;;;;;1877556;75;21530;-73
2021/12/18 07:03:49;;;;;;;17.73;12.28;;;3.10;99.90;;;;;;1863513;75;21679;-73
2021/12/18 07:06:15;;;;;;;14.93;11.12;;;3.10;99.90;;;;;;1863504;76;21098;-73
2021/12/18 07:08:41;;;;;;;16.93;11.35;;;3.20;99.90;;;;;;1870876;76;21053;-72
2021/12/18 07:11:07;;;;;;;16.77;12.00;;;3.10;99.90;;;;;;1886522;76;21176;-74
2021/12/18 07:13:33;;;;;;;16.75;11.53;;;3.10;99.90;;;;;;1879958;75;21149;-73
2021/12/18 07:16:00;;;;;;;19.10;12.10;;;3.10;99.90;;;;;;1879376;75;21163;-73
2021/12/18 07:18:26;;;;;;;16.60;11.12;;;3.20;99.90;;;;;;1863865;74;21163;-74
2021/12/18 07:20:52;;;;;;;27.85;11.57;;;3.20;99.90;;;;;;1869373;76;21114;-74
2021/12/18 07:23:18;;;;;;;14.10;10.93;;;3.30;99.90;;;;;;1870022;76;21107;-74
2021/12/18 07:25:45;;;;;;;27.37;11.70;;;3.30;99.90;;;;;;1857391;75;21089;-73
2021/12/18 07:28:11;;;;;;;15.68;11.20;;;3.20;99.90;;;;;;1865347;75;21153;-74
2021/12/18 07:30:37;;;;;;;23.55;11.38;;;3.20;99.90;;;;;;1880123;76;21156;-74
2021/12/18 07:33:09;;;;;;;16.05;11.40;;;3.20;99.90;;;;;;1877936;76;21156;-73
2021/12/18 07:35:31;;;;;;;17.10;10.05;;;3.20;99.90;;;;;;1875124;76;21141;-75
2021/12/18 07:37:57;;;;;;;16.02;11.18;;;3.30;99.90;;;;;;1866163;75;21100;-75
2021/12/18 07:40:23;;;;;;;16.40;10.38;;;3.20;99.90;;;;;;1881760;76;21083;-79
2021/12/18 07:42:49;;;;;;;20.15;11.40;;;3.20;99.90;;;;;;1868694;76;21095;-77
2021/12/18 07:45:15;;;;;;;15.15;10.78;;;3.30;99.90;;;;;;1856354;76;21130;-78
2021/12/18 07:47:41;;;;;;;14.28;10.65;;;3.20;99.90;;;;;;1871254;76;21168;-77
2021/12/18 07:50:12;;;;;;;17.75;10.63;;;3.20;99.90;;;;;;1868049;76;21140;-77
2021/12/18 07:52:35;;;;;;;16.67;11.08;;;3.20;99.90;;;;;;1865930;75;21173;-77
2021/12/18 07:55:01;;;;;;;12.90;10.08;;;3.20;99.90;;;;;;1857190;75;21082;-76
2021/12/18 07:57:28;;;;;;;34.23;15.58;;;3.20;99.90;;;;;;1858095;76;21089;-77
2021/12/18 07:59:54;;;;;;;24.25;12.85;;;3.20;99.90;;;;;;1852373;76;21078;-76
2021/12/18 08:02:20;;;;;;;20.17;12.90;;;3.30;99.90;;;;;;1881674;76;21095;-77
2021/12/18 08:04:46;;;;;;;14.73;10.82;;;3.30;99.90;;;;;;1861461;75;21086;-75
2021/12/18 08:07:12;;;;;;;17.40;11.22;;;3.20;99.90;;;;;;1874583;76;21103;-75
2021/12/18 08:09:38;;;;;;;14.15;10.85;;;3.20;99.90;;;;;;1873018;76;21156;-76
2021/12/18 08:12:05;;;;;;;15.25;10.53;;;3.20;99.90;;;;;;1864799;76;21063;-76
2021/12/18 08:14:32;;;;;;;14.85;10.68;;;3.30;99.90;;;;;;1878830;75;21064;-76
2021/12/18 08:16:58;;;;;;;15.75;10.40;;;3.40;99.90;;;;;;1882093;76;21475;-75
2021/12/18 08:19:24;;;;;;;15.00;10.43;;;3.40;99.90;;;;;;1863736;74;21499;-77
2021/12/18 08:21:50;;;;;;;19.45;11.35;;;3.30;99.90;;;;;;1877545;74;21478;-76
2021/12/18 08:24:16;;;;;;;13.03;10.20;;;3.20;99.90;;;;;;1871262;76;21215;-77
2021/12/18 08:26:42;;;;;;;19.20;9.98;;;3.30;99.90;;;;;;1881037;75;21683;-76
2021/12/18 08:29:08;;;;;;;17.75;10.15;;;3.30;99.90;;;;;;1883357;76;21156;-78
2021/12/18 08:31:35;;;;;;;16.70;9.93;;;3.30;99.90;;;;;;1879110;76;21175;-78
2021/12/18 08:34:03;;;;;;;15.05;11.25;;;3.20;99.90;;;;;;1873642;76;21081;-79
2021/12/18 08:36:28;;;;;;;13.08;10.45;;;3.30;99.90;;;;;;1862435;76;21080;-79
2021/12/18 08:38:55;;;;;;;14.28;9.88;;;3.20;99.90;;;;;;1873785;76;21172;-81
2021/12/18 08:41:21;;;;;;;14.25;10.38;;;3.20;99.90;;;;;;1881128;76;21136;-84
2021/12/18 08:43:49;;;;;;;14.75;10.80;;;3.20;99.90;;;;;;1876056;76;21144;-87
2021/12/18 08:46:15;;;;;;;13.50;10.23;;;3.20;99.90;;;;;;1883986;76;21089;-87
2021/12/18 08:48:41;;;;;;;15.58;10.43;;;3.10;99.90;;;;;;1875667;76;21091;-85
2021/12/18 08:51:07;;;;;;;18.85;9.93;;;3.30;99.90;;;;;;1870475;76;21090;-82
2021/12/18 08:53:33;;;;;;;15.78;10.25;;;3.40;99.90;;;;;;1881299;76;21090;-79
2021/12/18 08:55:59;;;;;;;16.50;10.05;;;3.40;99.90;;;;;;1871438;75;21060;-76
2021/12/18 08:58:26;;;;;;;15.03;10.25;;;3.30;99.90;;;;;;1871790;75;21166;-78
2021/12/18 09:00:52;;;;;;;15.35;9.80;;;3.30;99.90;;;;;;1883415;76;21087;-76
2021/12/18 09:03:19;;;;;;;13.00;9.85;;;3.40;99.90;;;;;;1878204;76;21102;-75
2021/12/18 09:05:45;;;;;;;15.40;10.28;;;3.30;99.90;;;;;;1879651;75;21098;-76
2021/12/18 09:08:11;;;;;;;16.97;9.95;;;3.20;99.90;;;;;;1877739;75;21148;-76
2021/12/18 09:10:37;;;;;;;15.88;9.98;;;3.20;99.90;;;;;;1878258;75;21089;-77
2021/12/18 09:13:03;;;;;;;14.13;9.70;;;3.40;99.90;;;;;;1879280;75;21532;-77
2021/12/18 09:15:29;;;;;;;34.35;11.28;;;3.40;99.90;;;;;;1887662;74;21462;-76
2021/12/18 09:17:55;;;;;;;15.80;8.70;;;3.50;99.90;;;;;;1872849;76;21200;-75
2021/12/18 09:20:21;;;;;;;14.95;9.58;;;3.50;99.90;;;;;;1874532;76;21152;-75
2021/12/18 09:22:47;;;;;;;16.67;9.23;;;3.30;99.90;;;;;;1891643;75;21147;-78
2021/12/18 09:25:14;;;;;;;13.10;8.98;;;3.30;99.90;;;;;;1869573;76;21081;-77
2021/12/18 09:27:40;;;;;;;15.40;9.78;;;3.40;99.90;;;;;;1860045;76;21349;-76
2021/12/18 09:30:06;;;;;;;13.98;8.65;;;3.30;99.90;;;;;;1882012;75;21058;-77
2021/12/18 09:32:32;;;;;;;14.68;9.38;;;3.40;99.90;;;;;;1876639;75;21146;-75
2021/12/18 09:34:58;;;;;;;11.35;8.88;;;3.50;99.90;;;;;;1864240;76;21128;-75
2021/12/18 09:37:24;;;;;;;14.13;9.65;;;3.40;99.90;;;;;;1866736;76;21082;-74
2021/12/18 09:39:50;;;;;;;18.35;9.85;;;3.40;99.90;;;;;;1863440;75;21150;-75
2021/12/18 09:42:16;;;;;;;13.03;9.10;;;3.40;99.90;;;;;;1857237;75;21087;-75
2021/12/18 09:44:43;;;;;;;15.00;9.48;;;3.50;99.90;;;;;;1871765;75;21093;-76
2021/12/18 09:47:09;;;;;;;14.25;9.73;;;3.50;99.90;;;;;;1865608;76;21083;-77
2021/12/18 09:49:35;;;;;;;14.73;9.95;;;3.60;99.90;;;;;;1885501;76;21167;-76
2021/12/18 09:52:01;;;;;;;13.78;9.33;;;3.80;99.90;;;;;;1879748;75;21073;-76
2021/12/18 09:54:27;;;;;;;14.20;9.05;;;3.70;99.90;;;;;;1879351;76;21169;-78
2021/12/18 09:56:53;;;;;;;17.90;8.93;;;3.80;99.90;;;;;;1874402;75;21136;-75
2021/12/18 09:59:19;;;;;;;12.68;9.50;;;3.80;99.90;;;;;;1876683;76;21167;-76
2021/12/18 10:01:46;;;;;;;15.25;9.23;;;3.80;99.90;;;;;;1876388;75;21163;-76
2021/12/18 10:04:12;;;;;;;12.75;8.65;;;3.80;99.90;;;;;;1871820;74;21064;-75
2021/12/18 10:06:43;;;;;;;13.62;8.98;;;3.90;99.90;;;;;;1866948;76;21556;-77
2021/12/18 10:09:06;;;;;;;12.45;9.13;;;3.80;99.90;;;;;;1879892;75;21086;-76
2021/12/18 10:11:32;;;;;;;13.83;9.73;;;3.80;99.90;;;;;;1858784;75;21489;-77
2021/12/18 10:13:58;;;;;;;13.58;9.53;;;3.70;99.90;;;;;;1883097;75;21087;-77
2021/12/18 10:16:24;;;;;;;11.12;9.08;;;3.90;99.90;;;;;;1886104;74;21094;-76
2021/12/18 10:18:50;;;;;;;11.70;8.98;;;3.80;99.90;;;;;;1888225;74;21216;-76
2021/12/18 10:21:16;;;;;;;13.68;9.13;;;3.80;99.90;;;;;;1863580;76;21058;-76
2021/12/18 10:23:44;;;;;;;12.78;9.53;;;3.70;99.90;;;;;;1880610;75;21155;-77
2021/12/18 10:26:10;;;;;;;13.88;9.58;;;3.50;99.90;;;;;;1875734;75;21657;-79
2021/12/18 10:28:36;;;;;;;15.10;9.23;;;3.50;99.90;;;;;;1882511;76;21161;-79
2021/12/18 10:31:02;;;;;;;13.32;9.73;;;3.60;99.90;;;;;;1869154;76;21093;-77
2021/12/18 10:33:31;;;;;;;14.47;9.68;;;3.70;99.90;;;;;;1874556;76;21164;-76
2021/12/18 10:35:57;;;;;;;15.80;9.90;;;3.80;99.90;;;;;;1866706;76;21104;-77
2021/12/18 10:38:23;;;;;;;13.38;9.15;;;3.80;99.90;;;;;;1875376;75;21125;-76
2021/12/18 10:40:51;;;;;;;18.57;10.20;;;4.00;99.90;;;;;;1877091;76;21067;-75
2021/12/18 10:43:17;;;;;;;11.40;9.23;;;4.00;99.90;;;;;;1875104;76;21094;-74
2021/12/18 10:45:43;;;;;;;14.10;9.13;;;4.00;99.90;;;;;;1877613;76;21081;-75
2021/12/18 10:48:11;;;;;;;19.95;9.88;;;4.10;99.90;;;;;;1886658;74;21514;-73
2021/12/18 10:50:37;;;;;;;11.10;8.75;;;4.20;99.90;;;;;;1870102;75;21097;-75
2021/12/18 10:53:03;;;;;;;15.40;10.08;;;4.00;99.90;;;;;;1868856;76;21148;-73
2021/12/18 10:55:29;;;;;;;12.85;9.15;;;3.90;99.90;;;;;;1862558;75;21088;-74
2021/12/18 10:57:55;;;;;;;14.45;9.63;;;3.90;99.90;;;;;;1859987;76;21150;-74
2021/12/18 11:00:22;;;;;;;12.23;9.50;;;4.00;99.90;;;;;;1879569;76;21096;-74
2021/12/18 11:02:48;;;;;;;14.00;9.50;;;4.20;99.90;;;;;;1864498;75;21884;-75
2021/12/18 11:05:14;;;;;;;16.48;9.33;;;4.20;99.90;;;;;;1869915;75;21263;-74
2021/12/18 11:07:43;;;;;;;14.28;9.13;;;4.20;99.90;;;;;;1870015;75;21143;-75
2021/12/18 11:10:18;;;;;;;14.18;9.25;;;4.20;99.90;;;;;;1865825;76;21582;-75
2021/12/18 11:15:25;;;;;;;13.53;8.75;;;4.30;99.90;;;;;;1877926;76;21141;-75
2021/12/18 11:17:51;;;;;;;12.70;9.75;;;4.30;99.90;;;;;;1874002;76;21147;-76
2021/12/18 11:20:17;;;;;;;14.78;10.43;;;4.20;99.90;;;;;;1872250;76;21082;-76
2021/12/18 11:22:43;;;;;;;21.07;10.32;;;4.40;99.90;;;;;;1887072;74;21095;-75
2021/12/18 11:25:09;;;;;;;17.20;10.88;;;4.50;99.90;;;;;;1884004;75;21055;-74
2021/12/18 11:27:35;;;;;;;16.15;10.45;;;4.50;99.90;;;;;;1868579;75;21172;-75
2021/12/18 11:30:02;;;;;;;14.95;10.60;;;4.50;99.90;;;;;;1855740;76;21512;-75
2021/12/18 11:32:28;;;;;;;14.28;10.20;;;4.50;99.90;;;;;;1879731;75;21094;-75
2021/12/18 11:34:54;;;;;;;14.58;10.05;;;4.50;99.90;;;;;;1858671;76;21159;-75
2021/12/18 11:37:21;;;;;;;13.20;9.85;;;4.50;99.90;;;;;;1866695;76;21148;-74
2021/12/18 11:39:47;;;;;;;12.33;10.18;;;4.20;99.90;;;;;;1883189;76;21152;-74
2021/12/18 11:42:13;;;;;;;14.40;10.15;;;4.30;99.90;;;;;;1867595;75;21093;-75
2021/12/18 11:44:40;;;;;;;11.83;8.45;;;4.30;99.90;;;;;;1873482;75;21159;-74
2021/12/18 11:47:06;;;;;;;17.75;10.10;;;4.40;99.90;;;;;;1883822;75;21105;-74
2021/12/18 11:49:33;;;;;;;18.55;11.05;;;4.40;99.90;;;;;;1885206;75;21229;-75
2021/12/18 11:51:59;;;;;;;18.37;11.03;;;4.50;99.90;;;;;;1869555;76;21167;-75
2021/12/18 11:54:25;;;;;;;17.35;10.48;;;4.50;99.90;;;;;;1864862;75;21086;-75
2021/12/18 11:56:51;;;;;;;15.32;10.53;;;4.50;99.90;;;;;;1876708;75;21059;-75
2021/12/18 11:59:17;;;;;;;13.38;10.20;;;4.80;99.90;;;;;;1867818;75;21220;-75
2021/12/18 12:01:43;;;;;;;19.07;11.60;;;4.80;99.90;;;;;;1857836;75;21089;-75
2021/12/18 12:04:10;;;;;;;17.30;10.75;;;4.70;99.90;;;;;;1879789;76;21091;-75
2021/12/18 12:06:36;;;;;;;22.75;9.73;;;4.60;99.90;;;;;;1866006;76;21172;-75
2021/12/18 12:09:02;;;;;;;16.00;9.95;;;4.70;99.90;;;;;;1872960;75;21167;-75
2021/12/18 12:11:28;;;;;;;15.28;9.85;;;4.70;99.90;;;;;;1883924;76;21548;-75
2021/12/18 12:13:54;;;;;;;17.70;11.03;;;4.60;99.90;;;;;;1880366;75;21566;-74
2021/12/18 12:16:20;;;;;;;14.75;10.50;;;4.60;99.90;;;;;;1857533;76;21081;-75
2021/12/18 12:18:46;;;;;;;14.30;9.60;;;4.20;99.90;;;;;;1875742;76;21156;-76
2021/12/18 12:21:13;;;;;;;16.77;11.57;;;4.10;99.90;;;;;;1865136;76;21144;-75
2021/12/18 12:23:39;;;;;;;26.57;11.20;;;4.20;99.90;;;;;;1883586;76;21156;-76
2021/12/18 12:26:05;;;;;;;16.73;10.38;;;4.00;99.90;;;;;;1886049;76;21087;-75
2021/12/18 12:28:31;;;;;;;17.02;11.03;;;4.30;99.90;;;;;;1856154;75;21160;-75
2021/12/18 12:30:57;;;;;;;17.40;11.12;;;4.40;99.90;;;;;;1859315;75;21108;-76
2021/12/18 12:33:23;;;;;;;15.03;10.98;;;4.40;99.90;;;;;;1877913;76;21172;-74
2021/12/18 12:35:49;;;;;;;15.95;10.75;;;4.50;99.90;;;;;;1882155;76;21085;-75
2021/12/18 12:38:15;;;;;;;20.05;11.33;;;4.40;99.90;;;;;;1870356;74;21085;-76
2021/12/18 12:40:41;;;;;;;17.98;11.38;;;4.50;99.90;;;;;;1866580;75;21090;-76
2021/12/18 12:43:09;;;;;;;15.48;11.12;;;4.40;99.90;;;;;;1877957;75;21064;-74
2021/12/18 12:45:37;;;;;;;20.55;11.70;;;4.40;99.90;;;;;;1880046;75;21151;-77
2021/12/18 12:48:07;;;;;;;27.15;13.83;;;4.30;99.90;;;;;;1871735;74;21126;-77
2021/12/18 12:50:30;;;;;;;26.85;16.42;;;4.30;99.90;;;;;;1870620;75;21548;-75
2021/12/18 12:52:57;;;;;;;19.40;12.35;;;4.30;99.90;;;;;;1863524;75;21498;-75
2021/12/18 12:55:23;;;;;;;15.98;12.60;;;4.30;99.90;;;;;;1881364;75;21447;-74
2021/12/18 12:57:50;;;;;;;17.77;11.60;;;4.30;99.90;;;;;;1882430;76;21490;-74
2021/12/18 13:00:16;;;;;;;17.42;11.57;;;4.30;99.90;;;;;;1877094;75;21091;-76
2021/12/18 13:02:42;;;;;;;20.88;11.00;;;4.30;99.90;;;;;;1875321;75;21238;-74
2021/12/18 13:05:08;;;;;;;17.48;12.05;;;4.30;99.90;;;;;;1886937;76;21207;-75
2021/12/18 13:07:35;;;;;;;17.60;11.57;;;4.40;99.90;;;;;;1875792;74;21059;-75
2021/12/18 13:10:01;;;;;;;17.42;11.60;;;4.40;99.90;;;;;;1864449;75;21089;-75
2021/12/18 13:12:27;;;;;;;21.10;11.35;;;4.20;99.90;;;;;;1874034;76;21604;-75
2021/12/18 13:14:53;;;;;;;17.60;12.47;;;4.30;99.90;;;;;;1886418;76;21506;-75